sensor_id;sensor_type;location;lat;lon;timestamp;pressure;altitude;pressure_sealevel;temperature;humidity
52185;BME280;38160;52.876;18.778;2022-07-29T00:00:30;101414.81;;;14.30;67.00
52185;BME280;38160;52.876;18.778;2022-07-29T00:03:03;101418.89;;;14.30;66.93
52185;BME280;38160;52.876;18.778;2022-07-29T00:05:41;101418.02;;;14.29;66.97
52185;BME280;38160;52.876;18.778;2022-07-29T00:08:25;101420.92;;;14.28;66.98
52185;BME280;38160;52.876;18.778;2022-07-29T00:10:56;101421.60;;;14.26;67.34
52185;BME280;38160;52.876;18.778;2022-07-29T00:13:28;101419.20;;;14.22;67.27
52185;BME280;38160;52.876;18.778;2022-07-29T00:16:01;101413.29;;;14.19;67.40
52185;BME280;38160;52.876;18.778;2022-07-29T00:18:33;101411.41;;;14.15;67.58
52185;BME280;38160;52.876;18.778;2022-07-29T00:21:06;101415.98;;;14.11;67.52
52185;BME280;38160;52.876;18.778;2022-07-29T00:23:38;101419.05;;;14.08;67.54
52185;BME280;38160;52.876;18.778;2022-07-29T00:26:10;101420.21;;;14.05;67.62
52185;BME280;38160;52.876;18.778;2022-07-29T00:28:42;101420.23;;;14.01;67.72
52185;BME280;38160;52.876;18.778;2022-07-29T00:31:13;101423.27;;;13.98;67.94
52185;BME280;38160;52.876;18.778;2022-07-29T00:33:45;101425.97;;;13.94;67.88
52185;BME280;38160;52.876;18.778;2022-07-29T00:36:17;101425.62;;;13.89;68.00
52185;BME280;38160;52.876;18.778;2022-07-29T00:38:49;101433.76;;;13.85;68.28
52185;BME280;38160;52.876;18.778;2022-07-29T00:41:21;101436.81;;;13.81;68.32
52185;BME280;38160;52.876;18.778;2022-07-29T00:43:53;101431.22;;;13.79;68.33
52185;BME280;38160;52.876;18.778;2022-07-29T00:46:25;101431.69;;;13.74;68.47
52185;BME280;38160;52.876;18.778;2022-07-29T00:48:57;101433.91;;;13.71;68.60
52185;BME280;38160;52.876;18.778;2022-07-29T00:51:28;101437.63;;;13.66;68.87
52185;BME280;38160;52.876;18.778;2022-07-29T00:54:02;101434.22;;;13.59;68.93
52185;BME280;38160;52.876;18.778;2022-07-29T01:00:12;101434.87;;;13.53;69.08
52185;BME280;38160;52.876;18.778;2022-07-29T01:03:06;101430.77;;;13.45;69.42
52185;BME280;38160;52.876;18.778;2022-07-29T01:05:41;101430.27;;;13.41;69.45
52185;BME280;38160;52.876;18.778;2022-07-29T01:11:36;101435.47;;;13.31;69.61
52185;BME280;38160;52.876;18.778;2022-07-29T01:14:09;101434.21;;;13.25;69.78
52185;BME280;38160;52.876;18.778;2022-07-29T01:26:47;101431.77;;;13.10;70.54
52185;BME280;38160;52.876;18.778;2022-07-29T01:29:32;101435.80;;;13.06;70.55
52185;BME280;38160;52.876;18.778;2022-07-29T01:32:22;101440.15;;;12.94;70.71
52185;BME280;38160;52.876;18.778;2022-07-29T01:38:21;101432.95;;;12.81;71.45
52185;BME280;38160;52.876;18.778;2022-07-29T01:41:09;101423.60;;;12.71;71.41
52185;BME280;38160;52.876;18.778;2022-07-29T01:43:56;101434.44;;;12.71;71.64
52185;BME280;38160;52.876;18.778;2022-07-29T01:46:34;101428.32;;;12.69;71.64
52185;BME280;38160;52.876;18.778;2022-07-29T01:49:10;101437.44;;;12.68;71.66
52185;BME280;38160;52.876;18.778;2022-07-29T01:51:51;101436.92;;;12.65;71.95
52185;BME280;38160;52.876;18.778;2022-07-29T01:54:45;101444.03;;;12.66;72.08
52185;BME280;38160;52.876;18.778;2022-07-29T01:57:23;101432.50;;;12.64;72.37
52185;BME280;38160;52.876;18.778;2022-07-29T01:59:58;101435.03;;;12.61;72.19
52185;BME280;38160;52.876;18.778;2022-07-29T02:02:31;101437.59;;;12.63;72.73
52185;BME280;38160;52.876;18.778;2022-07-29T02:05:05;101429.77;;;12.59;74.39
52185;BME280;38160;52.876;18.778;2022-07-29T02:07:40;101427.38;;;12.56;73.39
52185;BME280;38160;52.876;18.778;2022-07-29T02:10:14;101429.43;;;12.58;73.30
52185;BME280;38160;52.876;18.778;2022-07-29T02:12:48;101427.38;;;12.56;73.22
52185;BME280;38160;52.876;18.778;2022-07-29T02:15:27;101422.48;;;12.56;73.63
52185;BME280;38160;52.876;18.778;2022-07-29T02:18:03;101422.81;;;12.57;73.95
52185;BME280;38160;52.876;18.778;2022-07-29T02:20:38;101416.77;;;12.63;74.71
52185;BME280;38160;52.876;18.778;2022-07-29T02:23:11;101416.62;;;12.65;74.82
52185;BME280;38160;52.876;18.778;2022-07-29T02:25:44;101417.79;;;12.66;74.63
52185;BME280;38160;52.876;18.778;2022-07-29T02:28:21;101414.57;;;12.67;74.57
52185;BME280;38160;52.876;18.778;2022-07-29T02:30:57;101411.86;;;12.63;74.06
52185;BME280;38160;52.876;18.778;2022-07-29T02:33:31;101422.33;;;12.62;74.71
52185;BME280;38160;52.876;18.778;2022-07-29T02:36:04;101422.03;;;12.65;75.61
52185;BME280;38160;52.876;18.778;2022-07-29T02:38:36;101418.16;;;12.67;74.70
52185;BME280;38160;52.876;18.778;2022-07-29T02:41:44;101421.01;;;12.66;74.57
52185;BME280;38160;52.876;18.778;2022-07-29T02:44:20;101417.76;;;12.62;74.54
52185;BME280;38160;52.876;18.778;2022-07-29T02:47:23;101422.66;;;12.58;74.89
52185;BME280;38160;52.876;18.778;2022-07-29T02:50:07;101420.64;;;12.61;74.65
52185;BME280;38160;52.876;18.778;2022-07-29T02:52:52;101422.48;;;12.60;74.66
52185;BME280;38160;52.876;18.778;2022-07-29T02:55:33;101415.56;;;12.62;74.98
52185;BME280;38160;52.876;18.778;2022-07-29T02:58:32;101413.88;;;12.61;75.48
52185;BME280;38160;52.876;18.778;2022-07-29T03:01:14;101414.72;;;12.61;75.23
52185;BME280;38160;52.876;18.778;2022-07-29T03:03:49;101419.95;;;12.58;74.94
52185;BME280;38160;52.876;18.778;2022-07-29T03:06:24;101416.73;;;12.59;74.96
52185;BME280;38160;52.876;18.778;2022-07-29T03:08:59;101415.71;;;12.56;74.94
52185;BME280;38160;52.876;18.778;2022-07-29T03:11:31;101413.84;;;12.56;75.05
52185;BME280;38160;52.876;18.778;2022-07-29T03:14:04;101422.12;;;12.55;75.10
52185;BME280;38160;52.876;18.778;2022-07-29T03:16:37;101421.31;;;12.58;75.72
52185;BME280;38160;52.876;18.778;2022-07-29T03:19:09;101418.93;;;12.59;75.34
52185;BME280;38160;52.876;18.778;2022-07-29T03:21:40;101418.63;;;12.63;75.43
52185;BME280;38160;52.876;18.778;2022-07-29T03:24:34;101422.00;;;12.61;75.50
52185;BME280;38160;52.876;18.778;2022-07-29T03:27:06;101420.31;;;12.64;75.44
52185;BME280;38160;52.876;18.778;2022-07-29T03:29:38;101420.86;;;12.67;75.50
52185;BME280;38160;52.876;18.778;2022-07-29T03:32:09;101420.37;;;12.72;75.86
52185;BME280;38160;52.876;18.778;2022-07-29T03:34:41;101421.91;;;12.74;76.45
52185;BME280;38160;52.876;18.778;2022-07-29T03:37:13;101425.86;;;12.80;76.39
52185;BME280;38160;52.876;18.778;2022-07-29T03:39:45;101427.42;;;12.87;77.01
52185;BME280;38160;52.876;18.778;2022-07-29T03:42:19;101428.98;;;12.93;77.11
52185;BME280;38160;52.876;18.778;2022-07-29T03:44:52;101425.30;;;13.03;77.03
52185;BME280;38160;52.876;18.778;2022-07-29T03:47:27;101429.20;;;13.08;77.32
52185;BME280;38160;52.876;18.778;2022-07-29T03:50:07;101429.45;;;13.23;77.42
52185;BME280;38160;52.876;18.778;2022-07-29T03:52:40;101428.32;;;13.72;76.85
52185;BME280;38160;52.876;18.778;2022-07-29T03:55:12;101429.89;;;14.81;76.50
52185;BME280;38160;52.876;18.778;2022-07-29T03:57:45;101414.83;;;15.89;75.81
52185;BME280;38160;52.876;18.778;2022-07-29T04:00:18;101417.48;;;16.81;74.83
52185;BME280;38160;52.876;18.778;2022-07-29T04:02:50;101408.41;;;17.91;73.98
52185;BME280;38160;52.876;18.778;2022-07-29T04:05:22;101410.98;;;18.64;72.99
52185;BME280;38160;52.876;18.778;2022-07-29T04:07:53;101414.77;;;18.52;72.19
52185;BME280;38160;52.876;18.778;2022-07-29T04:10:25;101412.71;;;19.17;72.37
52185;BME280;38160;52.876;18.778;2022-07-29T04:12:57;101408.16;;;19.62;70.71
52185;BME280;38160;52.876;18.778;2022-07-29T04:15:30;101401.08;;;19.74;70.72
52185;BME280;38160;52.876;18.778;2022-07-29T04:18:01;101399.27;;;19.71;70.50
52185;BME280;38160;52.876;18.778;2022-07-29T04:20:33;101407.23;;;18.83;70.76
52185;BME280;38160;52.876;18.778;2022-07-29T04:23:05;101407.23;;;18.83;70.76
52185;BME280;38160;52.876;18.778;2022-07-29T04:25:37;101411.80;;;18.37;70.72
52185;BME280;38160;52.876;18.778;2022-07-29T04:28:10;101411.80;;;18.37;70.72
52185;BME280;38160;52.876;18.778;2022-07-29T04:30:41;101417.08;;;18.06;71.41
52185;BME280;38160;52.876;18.778;2022-07-29T04:33:13;101417.08;;;18.06;71.41
52185;BME280;38160;52.876;18.778;2022-07-29T04:35:44;101412.14;;;17.94;71.65
52185;BME280;38160;52.876;18.778;2022-07-29T04:38:16;101411.14;;;17.91;71.91
52185;BME280;38160;52.876;18.778;2022-07-29T04:40:48;101414.09;;;17.75;72.01
52185;BME280;38160;52.876;18.778;2022-07-29T04:43:20;101411.97;;;17.81;72.28
52185;BME280;38160;52.876;18.778;2022-07-29T04:45:51;101407.85;;;17.85;72.16
52185;BME280;38160;52.876;18.778;2022-07-29T04:48:23;101416.87;;;17.86;72.12
52185;BME280;38160;52.876;18.778;2022-07-29T04:50:55;101419.80;;;17.69;72.32
52185;BME280;38160;52.876;18.778;2022-07-29T04:53:27;101409.91;;;17.58;73.19
52185;BME280;38160;52.876;18.778;2022-07-29T04:55:59;101411.67;;;17.55;72.73
52185;BME280;38160;52.876;18.778;2022-07-29T04:58:30;101409.59;;;17.57;72.76
52185;BME280;38160;52.876;18.778;2022-07-29T05:01:03;101407.23;;;17.53;72.72
52185;BME280;38160;52.876;18.778;2022-07-29T05:03:35;101415.23;;;17.55;72.74
52185;BME280;38160;52.876;18.778;2022-07-29T05:06:07;101421.01;;;17.56;72.92
52185;BME280;38160;52.876;18.778;2022-07-29T05:08:38;101424.92;;;17.58;73.09
52185;BME280;38160;52.876;18.778;2022-07-29T05:11:10;101426.55;;;17.63;73.06
52185;BME280;38160;52.876;18.778;2022-07-29T05:17:41;101429.06;;;17.79;73.19
52185;BME280;38160;52.876;18.778;2022-07-29T05:20:13;101430.61;;;17.78;73.54
52185;BME280;38160;52.876;18.778;2022-07-29T05:22:44;101434.81;;;17.84;73.89
52185;BME280;38160;52.876;18.778;2022-07-29T05:25:16;101437.09;;;17.91;73.43
52185;BME280;38160;52.876;18.778;2022-07-29T05:27:48;101432.69;;;18.01;73.42
52185;BME280;38160;52.876;18.778;2022-07-29T05:30:20;101438.28;;;18.14;73.31
52185;BME280;38160;52.876;18.778;2022-07-29T05:32:52;101434.66;;;18.18;73.33
52185;BME280;38160;52.876;18.778;2022-07-29T05:35:23;101429.56;;;18.15;73.73
52185;BME280;38160;52.876;18.778;2022-07-29T05:37:55;101435.16;;;18.28;73.32
52185;BME280;38160;52.876;18.778;2022-07-29T05:40:27;101430.28;;;18.34;73.31
52185;BME280;38160;52.876;18.778;2022-07-29T05:43:09;101433.89;;;18.52;73.21
52185;BME280;38160;52.876;18.778;2022-07-29T05:45:42;101431.02;;;18.61;73.07
52185;BME280;38160;52.876;18.778;2022-07-29T05:48:14;101426.41;;;18.50;72.54
52185;BME280;38160;52.876;18.778;2022-07-29T05:50:46;101434.44;;;18.41;72.88
52185;BME280;38160;52.876;18.778;2022-07-29T05:53:20;101439.58;;;18.51;73.08
52185;BME280;38160;52.876;18.778;2022-07-29T05:55:52;101435.72;;;18.56;72.77
52185;BME280;38160;52.876;18.778;2022-07-29T05:58:24;101431.08;;;18.67;72.63
52185;BME280;38160;52.876;18.778;2022-07-29T06:00:55;101427.63;;;18.69;72.43
52185;BME280;38160;52.876;18.778;2022-07-29T06:03:36;101425.73;;;18.70;71.81
52185;BME280;38160;52.876;18.778;2022-07-29T06:06:07;101430.81;;;18.73;72.24
52185;BME280;38160;52.876;18.778;2022-07-29T06:08:38;101431.37;;;18.90;72.34
52185;BME280;38160;52.876;18.778;2022-07-29T06:11:11;101416.66;;;19.08;72.18
52185;BME280;38160;52.876;18.778;2022-07-29T06:13:42;101416.20;;;19.22;71.39
52185;BME280;38160;52.876;18.778;2022-07-29T06:16:14;101413.64;;;19.38;71.01
52185;BME280;38160;52.876;18.778;2022-07-29T06:18:46;101407.49;;;19.53;71.53
52185;BME280;38160;52.876;18.778;2022-07-29T06:21:17;101413.66;;;19.69;71.43
52185;BME280;38160;52.876;18.778;2022-07-29T06:23:49;101412.80;;;19.86;70.81
52185;BME280;38160;52.876;18.778;2022-07-29T06:26:24;101405.86;;;19.96;68.73
52185;BME280;38160;52.876;18.778;2022-07-29T06:28:56;101417.03;;;20.02;69.61
52185;BME280;38160;52.876;18.778;2022-07-29T06:31:28;101418.20;;;20.03;68.11
52185;BME280;38160;52.876;18.778;2022-07-29T06:34:00;101419.88;;;20.11;69.43
52185;BME280;38160;52.876;18.778;2022-07-29T06:36:34;101409.47;;;20.24;69.72
52185;BME280;38160;52.876;18.778;2022-07-29T06:39:08;101412.31;;;20.33;69.39
52185;BME280;38160;52.876;18.778;2022-07-29T06:41:39;101405.16;;;20.32;68.55
52185;BME280;38160;52.876;18.778;2022-07-29T06:44:13;101406.09;;;20.48;69.03
52185;BME280;38160;52.876;18.778;2022-07-29T06:46:45;101410.34;;;20.51;68.24
52185;BME280;38160;52.876;18.778;2022-07-29T06:49:22;101408.34;;;20.49;66.23
52185;BME280;38160;52.876;18.778;2022-07-29T06:51:55;101402.52;;;20.48;67.52
52185;BME280;38160;52.876;18.778;2022-07-29T06:54:27;101404.22;;;20.49;67.32
52185;BME280;38160;52.876;18.778;2022-07-29T06:57:01;101396.52;;;20.61;67.27
52185;BME280;38160;52.876;18.778;2022-07-29T06:59:32;101400.21;;;20.78;66.35
52185;BME280;38160;52.876;18.778;2022-07-29T07:02:04;101398.29;;;20.85;66.88
52185;BME280;38160;52.876;18.778;2022-07-29T07:04:36;101397.53;;;20.94;66.22
52185;BME280;38160;52.876;18.778;2022-07-29T07:07:07;101395.83;;;21.06;66.42
52185;BME280;38160;52.876;18.778;2022-07-29T07:09:39;101385.43;;;21.21;66.49
52185;BME280;38160;52.876;18.778;2022-07-29T07:12:11;101385.61;;;21.27;64.53
52185;BME280;38160;52.876;18.778;2022-07-29T07:14:43;101387.58;;;21.35;64.61
52185;BME280;38160;52.876;18.778;2022-07-29T07:17:14;101393.41;;;21.43;64.70
52185;BME280;38160;52.876;18.778;2022-07-29T07:19:46;101391.39;;;21.63;65.08
52185;BME280;38160;52.876;18.778;2022-07-29T07:22:18;101391.39;;;21.63;65.08
52185;BME280;38160;52.876;18.778;2022-07-29T07:24:50;101389.97;;;21.54;60.73
52185;BME280;38160;52.876;18.778;2022-07-29T07:27:21;101394.03;;;21.45;61.03
52185;BME280;38160;52.876;18.778;2022-07-29T07:29:53;101392.95;;;21.46;63.27
52185;BME280;38160;52.876;18.778;2022-07-29T07:32:25;101390.14;;;21.59;62.60
52185;BME280;38160;52.876;18.778;2022-07-29T07:34:57;101388.52;;;21.68;62.27
52185;BME280;38160;52.876;18.778;2022-07-29T07:37:29;101392.23;;;21.64;62.08
52185;BME280;38160;52.876;18.778;2022-07-29T07:40:02;101391.14;;;21.72;62.98
52185;BME280;38160;52.876;18.778;2022-07-29T07:42:34;101396.43;;;21.89;62.69
52185;BME280;38160;52.876;18.778;2022-07-29T07:45:07;101396.43;;;21.89;62.69
52185;BME280;38160;52.876;18.778;2022-07-29T07:47:40;101389.41;;;21.93;62.18
52185;BME280;38160;52.876;18.778;2022-07-29T07:50:12;101385.69;;;21.97;60.03
52185;BME280;38160;52.876;18.778;2022-07-29T07:52:49;101382.89;;;22.03;61.30
52185;BME280;38160;52.876;18.778;2022-07-29T07:55:22;101373.14;;;22.08;59.65
52185;BME280;38160;52.876;18.778;2022-07-29T07:57:56;101376.25;;;22.18;60.74
52185;BME280;38160;52.876;18.778;2022-07-29T08:00:28;101383.34;;;22.32;61.63
52185;BME280;38160;52.876;18.778;2022-07-29T08:02:59;101379.23;;;22.41;61.38
52185;BME280;38160;52.876;18.778;2022-07-29T08:05:31;101383.30;;;22.48;60.99
52185;BME280;38160;52.876;18.778;2022-07-29T08:08:03;101378.27;;;22.54;60.57
52185;BME280;38160;52.876;18.778;2022-07-29T08:10:35;101380.06;;;22.67;60.67
52185;BME280;38160;52.876;18.778;2022-07-29T08:13:38;101382.06;;;22.78;57.91
52185;BME280;38160;52.876;18.778;2022-07-29T08:16:10;101382.45;;;22.73;58.94
52185;BME280;38160;52.876;18.778;2022-07-29T08:18:44;101387.81;;;22.86;59.80
52185;BME280;38160;52.876;18.778;2022-07-29T08:21:17;101389.05;;;22.90;59.36
52185;BME280;38160;52.876;18.778;2022-07-29T08:23:51;101392.38;;;22.92;58.85
52185;BME280;38160;52.876;18.778;2022-07-29T08:26:29;101394.95;;;23.03;58.15
52185;BME280;38160;52.876;18.778;2022-07-29T08:29:01;101397.41;;;23.02;58.18
52185;BME280;38160;52.876;18.778;2022-07-29T08:31:32;101401.76;;;23.00;55.94
52185;BME280;38160;52.876;18.778;2022-07-29T08:34:05;101401.03;;;22.96;57.68
52185;BME280;38160;52.876;18.778;2022-07-29T08:36:37;101406.21;;;23.01;58.13
52185;BME280;38160;52.876;18.778;2022-07-29T08:39:10;101408.89;;;23.08;58.16
52185;BME280;38160;52.876;18.778;2022-07-29T08:41:48;101401.39;;;23.06;55.84
52185;BME280;38160;52.876;18.778;2022-07-29T08:44:20;101402.91;;;23.11;57.93
52185;BME280;38160;52.876;18.778;2022-07-29T08:46:52;101397.80;;;23.15;56.99
52185;BME280;38160;52.876;18.778;2022-07-29T08:49:24;101389.14;;;23.20;54.87
52185;BME280;38160;52.876;18.778;2022-07-29T08:51:57;101387.78;;;23.30;56.73
52185;BME280;38160;52.876;18.778;2022-07-29T08:54:32;101382.85;;;23.32;56.30
52185;BME280;38160;52.876;18.778;2022-07-29T08:57:05;101371.26;;;23.30;56.49
52185;BME280;38160;52.876;18.778;2022-07-29T08:59:42;101361.69;;;23.32;55.32
52185;BME280;38160;52.876;18.778;2022-07-29T09:02:21;101386.20;;;23.52;56.33
52185;BME280;38160;52.876;18.778;2022-07-29T09:04:56;101384.42;;;23.58;54.81
52185;BME280;38160;52.876;18.778;2022-07-29T09:07:39;101376.93;;;23.65;55.41
52185;BME280;38160;52.876;18.778;2022-07-29T09:10:23;101377.02;;;23.88;55.71
52185;BME280;38160;52.876;18.778;2022-07-29T09:13:00;101369.41;;;24.02;53.36
52185;BME280;38160;52.876;18.778;2022-07-29T09:15:54;101367.70;;;24.01;54.41
52185;BME280;38160;52.876;18.778;2022-07-29T09:18:37;101371.23;;;23.99;52.10
52185;BME280;38160;52.876;18.778;2022-07-29T09:27:36;101373.50;;;24.23;54.17
52185;BME280;38160;52.876;18.778;2022-07-29T09:30:09;101367.81;;;24.27;53.95
52185;BME280;38160;52.876;18.778;2022-07-29T09:32:55;101359.54;;;24.16;52.57
52185;BME280;38160;52.876;18.778;2022-07-29T09:35:30;101365.89;;;24.16;53.29
52185;BME280;38160;52.876;18.778;2022-07-29T09:38:12;101367.93;;;24.21;53.17
52185;BME280;38160;52.876;18.778;2022-07-29T09:41:09;101372.67;;;24.23;52.94
52185;BME280;38160;52.876;18.778;2022-07-29T09:43:28;101367.88;;;24.18;52.57
52185;BME280;38160;52.876;18.778;2022-07-29T09:46:11;101365.23;;;24.23;51.61
52185;BME280;38160;52.876;18.778;2022-07-29T09:48:44;101370.89;;;24.28;51.73
52185;BME280;38160;52.876;18.778;2022-07-29T09:51:20;101365.66;;;24.29;52.03
52185;BME280;38160;52.876;18.778;2022-07-29T09:53:54;101369.20;;;24.27;49.96
52185;BME280;38160;52.876;18.778;2022-07-29T09:56:39;101366.64;;;24.35;51.33
52185;BME280;38160;52.876;18.778;2022-07-29T09:59:11;101359.37;;;24.43;49.43
52185;BME280;38160;52.876;18.778;2022-07-29T10:01:44;101357.18;;;24.55;51.23
52185;BME280;38160;52.876;18.778;2022-07-29T10:04:16;101360.86;;;24.58;51.61
52185;BME280;38160;52.876;18.778;2022-07-29T10:06:58;101356.54;;;24.62;51.40
52185;BME280;38160;52.876;18.778;2022-07-29T10:09:32;101353.39;;;24.70;51.38
52185;BME280;38160;52.876;18.778;2022-07-29T10:12:09;101355.45;;;24.75;50.98
52185;BME280;38160;52.876;18.778;2022-07-29T10:14:44;101351.37;;;24.77;50.31
52185;BME280;38160;52.876;18.778;2022-07-29T10:17:17;101346.73;;;24.92;50.91
52185;BME280;38160;52.876;18.778;2022-07-29T10:19:50;101351.89;;;25.15;49.84
52185;BME280;38160;52.876;18.778;2022-07-29T10:22:22;101342.30;;;25.31;51.07
52185;BME280;38160;52.876;18.778;2022-07-29T10:24:54;101345.48;;;25.23;50.66
52185;BME280;38160;52.876;18.778;2022-07-29T10:27:26;101348.81;;;25.13;50.15
52185;BME280;38160;52.876;18.778;2022-07-29T10:29:58;101349.51;;;25.06;50.23
52185;BME280;38160;52.876;18.778;2022-07-29T10:38:37;101342.91;;;25.19;49.56
52185;BME280;38160;52.876;18.778;2022-07-29T10:44:22;101330.88;;;25.25;48.95
52185;BME280;38160;52.876;18.778;2022-07-29T10:46:57;101330.47;;;25.33;48.88
52185;BME280;38160;52.876;18.778;2022-07-29T10:49:29;101333.63;;;25.40;49.71
52185;BME280;38160;52.876;18.778;2022-07-29T10:52:10;101330.98;;;25.45;49.54
52185;BME280;38160;52.876;18.778;2022-07-29T10:54:54;101334.05;;;25.60;49.45
52185;BME280;38160;52.876;18.778;2022-07-29T10:57:30;101340.53;;;25.68;49.15
52185;BME280;38160;52.876;18.778;2022-07-29T11:02:58;101339.63;;;25.80;44.42
52185;BME280;38160;52.876;18.778;2022-07-29T11:05:30;101336.86;;;25.80;47.39
52185;BME280;38160;52.876;18.778;2022-07-29T11:10:50;101324.64;;;25.90;48.19
52185;BME280;38160;52.876;18.778;2022-07-29T11:13:44;101326.27;;;25.88;48.03
52185;BME280;38160;52.876;18.778;2022-07-29T11:16:19;101320.25;;;25.91;46.02
52185;BME280;38160;52.876;18.778;2022-07-29T11:21:49;101321.62;;;26.08;47.49
52185;BME280;38160;52.876;18.778;2022-07-29T11:24:26;101326.11;;;26.12;45.88
52185;BME280;38160;52.876;18.778;2022-07-29T11:27:17;101323.00;;;26.08;46.87
52185;BME280;38160;52.876;18.778;2022-07-29T11:30:05;101325.87;;;26.13;46.86
52185;BME280;38160;52.876;18.778;2022-07-29T11:32:39;101324.87;;;26.20;46.62
52185;BME280;38160;52.876;18.778;2022-07-29T11:35:15;101321.83;;;26.21;46.75
52185;BME280;38160;52.876;18.778;2022-07-29T11:38:27;101320.72;;;26.20;45.63
52185;BME280;38160;52.876;18.778;2022-07-29T11:41:26;101320.92;;;26.16;46.11
52185;BME280;38160;52.876;18.778;2022-07-29T11:44:00;101324.94;;;26.08;44.71
52185;BME280;38160;52.876;18.778;2022-07-29T11:46:47;101320.70;;;26.03;46.07
52185;BME280;38160;52.876;18.778;2022-07-29T11:49:24;101323.59;;;26.10;46.07
52185;BME280;38160;52.876;18.778;2022-07-29T11:51:57;101324.45;;;26.11;45.63
52185;BME280;38160;52.876;18.778;2022-07-29T11:54:34;101323.12;;;25.99;44.78
52185;BME280;38160;52.876;18.778;2022-07-29T11:57:09;101319.19;;;25.95;44.31
52185;BME280;38160;52.876;18.778;2022-07-29T11:59:43;101319.29;;;26.00;45.30
52185;BME280;38160;52.876;18.778;2022-07-29T12:02:17;101322.05;;;26.00;45.53
52185;BME280;38160;52.876;18.778;2022-07-29T12:04:57;101321.12;;;25.94;44.89
52185;BME280;38160;52.876;18.778;2022-07-29T12:07:53;101321.04;;;25.89;45.14
52185;BME280;38160;52.876;18.778;2022-07-29T12:10:38;101315.70;;;26.00;45.31
52185;BME280;38160;52.876;18.778;2022-07-29T12:13:12;101315.97;;;26.01;44.00
52185;BME280;38160;52.876;18.778;2022-07-29T12:15:55;101308.09;;;26.09;44.94
52185;BME280;38160;52.876;18.778;2022-07-29T12:28:11;101303.08;;;26.26;44.06
52185;BME280;38160;52.876;18.778;2022-07-29T12:30:49;101297.78;;;26.41;43.92
52185;BME280;38160;52.876;18.778;2022-07-29T12:33:23;101296.73;;;26.62;43.94
52185;BME280;38160;52.876;18.778;2022-07-29T12:36:02;101292.74;;;26.55;43.59
52185;BME280;38160;52.876;18.778;2022-07-29T12:38:36;101292.03;;;26.45;43.77
52185;BME280;38160;52.876;18.778;2022-07-29T12:41:13;101285.88;;;26.58;43.77
52185;BME280;38160;52.876;18.778;2022-07-29T12:43:53;101279.75;;;26.75;42.17
52185;BME280;38160;52.876;18.778;2022-07-29T12:46:25;101281.77;;;26.60;42.47
52185;BME280;38160;52.876;18.778;2022-07-29T12:51:54;101275.09;;;26.59;42.24
52185;BME280;38160;52.876;18.778;2022-07-29T12:54:46;101276.90;;;26.31;42.62
52185;BME280;38160;52.876;18.778;2022-07-29T12:57:13;101266.88;;;26.10;42.39
52185;BME280;38160;52.876;18.778;2022-07-29T13:00:11;101273.52;;;25.92;42.88
52185;BME280;38160;52.876;18.778;2022-07-29T13:02:42;101271.86;;;25.91;43.13
52185;BME280;38160;52.876;18.778;2022-07-29T13:05:14;101262.77;;;25.79;42.64
52185;BME280;38160;52.876;18.778;2022-07-29T13:07:46;101269.56;;;25.71;42.75
52185;BME280;38160;52.876;18.778;2022-07-29T13:10:35;101266.33;;;25.60;42.46
52185;BME280;38160;52.876;18.778;2022-07-29T13:19:45;101261.42;;;26.13;41.95
52185;BME280;38160;52.876;18.778;2022-07-29T13:22:23;101257.66;;;26.02;42.07
52185;BME280;38160;52.876;18.778;2022-07-29T13:24:58;101254.58;;;26.01;41.94
52185;BME280;38160;52.876;18.778;2022-07-29T13:27:53;101248.05;;;26.07;42.08
52185;BME280;38160;52.876;18.778;2022-07-29T13:33:20;101244.73;;;26.47;41.75
52185;BME280;38160;52.876;18.778;2022-07-29T13:35:52;101248.67;;;26.51;41.45
52185;BME280;38160;52.876;18.778;2022-07-29T13:38:27;101242.02;;;26.69;41.28
52185;BME280;38160;52.876;18.778;2022-07-29T13:41:00;101245.56;;;26.64;40.75
52185;BME280;38160;52.876;18.778;2022-07-29T13:43:32;101244.86;;;26.54;41.44
52185;BME280;38160;52.876;18.778;2022-07-29T13:49:41;101231.43;;;26.85;41.35
52185;BME280;38160;52.876;18.778;2022-07-29T13:52:12;101226.87;;;26.99;40.95
52185;BME280;38160;52.876;18.778;2022-07-29T13:54:45;101226.36;;;27.04;40.93
52185;BME280;38160;52.876;18.778;2022-07-29T13:57:17;101228.53;;;27.00;40.36
52185;BME280;38160;52.876;18.778;2022-07-29T13:59:49;101222.97;;;26.97;40.45
52185;BME280;38160;52.876;18.778;2022-07-29T14:02:22;101224.15;;;27.04;40.46
52185;BME280;38160;52.876;18.778;2022-07-29T14:05:13;101221.34;;;27.23;40.37
52185;BME280;38160;52.876;18.778;2022-07-29T14:07:41;101223.07;;;27.29;39.76
52185;BME280;38160;52.876;18.778;2022-07-29T14:10:15;101217.61;;;27.15;39.76
52185;BME280;38160;52.876;18.778;2022-07-29T14:12:47;101222.14;;;26.96;39.69
52185;BME280;38160;52.876;18.778;2022-07-29T14:15:20;101217.38;;;26.92;40.02
52185;BME280;38160;52.876;18.778;2022-07-29T14:18:39;101211.48;;;27.10;39.53
52185;BME280;38160;52.876;18.778;2022-07-29T14:21:08;101219.19;;;27.06;39.19
52185;BME280;38160;52.876;18.778;2022-07-29T14:27:00;101202.59;;;27.08;39.21
52185;BME280;38160;52.876;18.778;2022-07-29T14:29:32;101207.02;;;26.60;39.10
52185;BME280;38160;52.876;18.778;2022-07-29T14:32:07;101211.57;;;26.30;39.63
52185;BME280;38160;52.876;18.778;2022-07-29T14:34:41;101207.70;;;26.09;39.70
52185;BME280;38160;52.876;18.778;2022-07-29T14:37:14;101215.80;;;25.96;39.49
52185;BME280;38160;52.876;18.778;2022-07-29T14:39:46;101208.30;;;25.80;39.74